sensor_id;sensor_type;location;lat;lon;timestamp;temperature;humidity
11140;DHT22;5624;49.388;11.350;2024-02-26T00:01:29;3.80;96.10
11140;DHT22;5624;49.388;11.350;2024-02-26T00:03:56;3.80;96.40
11140;DHT22;5624;49.388;11.350;2024-02-26T00:06:25;3.80;96.50
11140;DHT22;5624;49.388;11.350;2024-02-26T00:08:50;3.80;96.60
11140;DHT22;5624;49.388;11.350;2024-02-26T00:11:15;3.80;96.70
11140;DHT22;5624;49.388;11.350;2024-02-26T00:13:41;3.80;96.60
11140;DHT22;5624;49.388;11.350;2024-02-26T00:16:06;3.80;96.90
11140;DHT22;5624;49.388;11.350;2024-02-26T00:18:33;3.80;96.60
11140;DHT22;5624;49.388;11.350;2024-02-26T00:20:58;3.70;97.10
11140;DHT22;5624;49.388;11.350;2024-02-26T00:23:24;3.70;96.80
11140;DHT22;5624;49.388;11.350;2024-02-26T00:25:49;3.70;97.20
11140;DHT22;5624;49.388;11.350;2024-02-26T00:28:16;3.70;97.00
11140;DHT22;5624;49.388;11.350;2024-02-26T00:30:41;3.60;97.30
11140;DHT22;5624;49.388;11.350;2024-02-26T00:33:07;3.50;97.70
11140;DHT22;5624;49.388;11.350;2024-02-26T00:35:32;3.50;97.90
11140;DHT22;5624;49.388;11.350;2024-02-26T00:37:58;3.50;98.00
11140;DHT22;5624;49.388;11.350;2024-02-26T00:40:25;3.50;97.90
11140;DHT22;5624;49.388;11.350;2024-02-26T00:42:50;3.50;98.40
11140;DHT22;5624;49.388;11.350;2024-02-26T00:45:15;3.40;98.50
11140;DHT22;5624;49.388;11.350;2024-02-26T00:47:42;3.40;98.60
11140;DHT22;5624;49.388;11.350;2024-02-26T00:50:08;3.40;99.00
11140;DHT22;5624;49.388;11.350;2024-02-26T00:52:34;3.40;98.50
11140;DHT22;5624;49.388;11.350;2024-02-26T00:55:01;3.40;98.60
11140;DHT22;5624;49.388;11.350;2024-02-26T00:57:26;3.40;98.40
11140;DHT22;5624;49.388;11.350;2024-02-26T00:59:52;3.40;98.30
11140;DHT22;5624;49.388;11.350;2024-02-26T01:02:17;3.40;98.20
11140;DHT22;5624;49.388;11.350;2024-02-26T01:04:43;3.40;98.20
11140;DHT22;5624;49.388;11.350;2024-02-26T01:07:09;3.40;98.00
11140;DHT22;5624;49.388;11.350;2024-02-26T01:09:34;3.40;98.10
11140;DHT22;5624;49.388;11.350;2024-02-26T01:12:00;3.40;97.90
11140;DHT22;5624;49.388;11.350;2024-02-26T01:14:25;3.40;97.70
11140;DHT22;5624;49.388;11.350;2024-02-26T01:16:51;3.40;97.40
11140;DHT22;5624;49.388;11.350;2024-02-26T01:19:16;3.40;97.30
11140;DHT22;5624;49.388;11.350;2024-02-26T01:21:42;3.40;97.70
11140;DHT22;5624;49.388;11.350;2024-02-26T01:24:07;3.40;97.90
11140;DHT22;5624;49.388;11.350;2024-02-26T01:26:33;3.30;97.70
11140;DHT22;5624;49.388;11.350;2024-02-26T01:28:58;3.30;97.80
11140;DHT22;5624;49.388;11.350;2024-02-26T01:31:24;3.30;98.00
11140;DHT22;5624;49.388;11.350;2024-02-26T01:33:49;3.30;97.90
11140;DHT22;5624;49.388;11.350;2024-02-26T01:36:15;3.30;98.10
11140;DHT22;5624;49.388;11.350;2024-02-26T01:38:40;3.20;98.70
11140;DHT22;5624;49.388;11.350;2024-02-26T01:41:06;3.10;98.80
11140;DHT22;5624;49.388;11.350;2024-02-26T01:43:32;3.10;99.10
11140;DHT22;5624;49.388;11.350;2024-02-26T01:45:58;3.20;98.90
11140;DHT22;5624;49.388;11.350;2024-02-26T01:48:23;3.20;99.10
11140;DHT22;5624;49.388;11.350;2024-02-26T01:50:49;3.10;99.10
11140;DHT22;5624;49.388;11.350;2024-02-26T01:53:15;3.10;99.30
11140;DHT22;5624;49.388;11.350;2024-02-26T01:55:42;3.10;99.50
11140;DHT22;5624;49.388;11.350;2024-02-26T01:58:07;3.10;99.60
11140;DHT22;5624;49.388;11.350;2024-02-26T02:00:34;3.10;99.30
11140;DHT22;5624;49.388;11.350;2024-02-26T02:03:01;3.10;99.40
11140;DHT22;5624;49.388;11.350;2024-02-26T02:05:28;3.10;99.50
11140;DHT22;5624;49.388;11.350;2024-02-26T02:07:54;3.00;99.90
11140;DHT22;5624;49.388;11.350;2024-02-26T02:10:20;3.00;99.90
11140;DHT22;5624;49.388;11.350;2024-02-26T02:12:50;3.00;99.90
11140;DHT22;5624;49.388;11.350;2024-02-26T02:15:16;3.00;99.90
11140;DHT22;5624;49.388;11.350;2024-02-26T02:17:42;3.00;99.90
11140;DHT22;5624;49.388;11.350;2024-02-26T02:20:18;3.00;99.90
11140;DHT22;5624;49.388;11.350;2024-02-26T02:22:46;3.00;99.80
11140;DHT22;5624;49.388;11.350;2024-02-26T02:25:12;3.00;99.90
11140;DHT22;5624;49.388;11.350;2024-02-26T02:27:38;3.00;99.80
11140;DHT22;5624;49.388;11.350;2024-02-26T02:30:05;3.00;99.70
11140;DHT22;5624;49.388;11.350;2024-02-26T02:32:31;3.00;99.50
11140;DHT22;5624;49.388;11.350;2024-02-26T02:34:58;3.00;99.60
11140;DHT22;5624;49.388;11.350;2024-02-26T02:37:24;3.00;99.30
11140;DHT22;5624;49.388;11.350;2024-02-26T02:39:49;3.00;99.50
11140;DHT22;5624;49.388;11.350;2024-02-26T02:42:15;2.90;99.60
11140;DHT22;5624;49.388;11.350;2024-02-26T02:44:40;3.00;99.10
11140;DHT22;5624;49.388;11.350;2024-02-26T02:47:06;3.00;98.90
11140;DHT22;5624;49.388;11.350;2024-02-26T02:49:31;3.00;98.70
11140;DHT22;5624;49.388;11.350;2024-02-26T02:51:57;3.10;98.30
11140;DHT22;5624;49.388;11.350;2024-02-26T02:54:23;3.10;98.20
11140;DHT22;5624;49.388;11.350;2024-02-26T02:56:48;3.10;97.80
11140;DHT22;5624;49.388;11.350;2024-02-26T02:59:14;3.10;97.70
11140;DHT22;5624;49.388;11.350;2024-02-26T03:01:39;3.20;97.10
11140;DHT22;5624;49.388;11.350;2024-02-26T03:04:05;3.20;96.90
11140;DHT22;5624;49.388;11.350;2024-02-26T03:06:30;3.20;96.60
11140;DHT22;5624;49.388;11.350;2024-02-26T03:08:56;3.20;96.50
11140;DHT22;5624;49.388;11.350;2024-02-26T03:11:22;3.30;95.80
11140;DHT22;5624;49.388;11.350;2024-02-26T03:13:47;3.20;95.50
11140;DHT22;5624;49.388;11.350;2024-02-26T03:16:13;3.30;95.40
11140;DHT22;5624;49.388;11.350;2024-02-26T03:18:39;3.30;95.40
11140;DHT22;5624;49.388;11.350;2024-02-26T03:21:05;3.20;94.70
11140;DHT22;5624;49.388;11.350;2024-02-26T03:23:31;3.30;94.50
11140;DHT22;5624;49.388;11.350;2024-02-26T03:25:58;3.30;94.30
11140;DHT22;5624;49.388;11.350;2024-02-26T03:28:23;3.30;93.70
11140;DHT22;5624;49.388;11.350;2024-02-26T03:30:49;3.30;93.60
11140;DHT22;5624;49.388;11.350;2024-02-26T03:33:14;3.30;93.40
11140;DHT22;5624;49.388;11.350;2024-02-26T03:35:40;3.30;93.20
11140;DHT22;5624;49.388;11.350;2024-02-26T03:38:06;3.30;93.40
11140;DHT22;5624;49.388;11.350;2024-02-26T03:40:31;3.30;93.20
11140;DHT22;5624;49.388;11.350;2024-02-26T03:42:58;3.30;93.10
11140;DHT22;5624;49.388;11.350;2024-02-26T03:45:23;3.30;92.80
11140;DHT22;5624;49.388;11.350;2024-02-26T03:47:48;3.30;92.80
11140;DHT22;5624;49.388;11.350;2024-02-26T03:50:14;3.30;92.60
11140;DHT22;5624;49.388;11.350;2024-02-26T03:52:40;3.40;92.30
11140;DHT22;5624;49.388;11.350;2024-02-26T03:55:05;3.40;91.90
11140;DHT22;5624;49.388;11.350;2024-02-26T03:57:31;3.50;91.50
11140;DHT22;5624;49.388;11.350;2024-02-26T03:59:56;3.40;91.60
11140;DHT22;5624;49.388;11.350;2024-02-26T04:02:22;3.40;91.30
11140;DHT22;5624;49.388;11.350;2024-02-26T04:04:48;3.40;91.00
11140;DHT22;5624;49.388;11.350;2024-02-26T04:07:14;3.40;91.10
11140;DHT22;5624;49.388;11.350;2024-02-26T04:09:39;3.40;91.20
11140;DHT22;5624;49.388;11.350;2024-02-26T04:12:05;3.40;90.70
11140;DHT22;5624;49.388;11.350;2024-02-26T04:14:31;3.40;90.30
11140;DHT22;5624;49.388;11.350;2024-02-26T04:16:56;3.30;90.70
11140;DHT22;5624;49.388;11.350;2024-02-26T04:19:22;3.30;90.90
11140;DHT22;5624;49.388;11.350;2024-02-26T04:21:47;3.30;90.50
11140;DHT22;5624;49.388;11.350;2024-02-26T04:24:13;3.30;90.20
11140;DHT22;5624;49.388;11.350;2024-02-26T04:26:38;3.30;90.20
11140;DHT22;5624;49.388;11.350;2024-02-26T04:29:04;3.30;90.00
11140;DHT22;5624;49.388;11.350;2024-02-26T04:31:29;3.40;89.80
11140;DHT22;5624;49.388;11.350;2024-02-26T04:33:58;3.40;89.30
11140;DHT22;5624;49.388;11.350;2024-02-26T04:36:23;3.40;89.50
11140;DHT22;5624;49.388;11.350;2024-02-26T04:38:51;3.30;89.60
11140;DHT22;5624;49.388;11.350;2024-02-26T04:41:16;3.40;89.50
11140;DHT22;5624;49.388;11.350;2024-02-26T04:43:42;3.40;89.50
11140;DHT22;5624;49.388;11.350;2024-02-26T04:46:08;3.40;89.50
11140;DHT22;5624;49.388;11.350;2024-02-26T04:48:34;3.40;89.30
11140;DHT22;5624;49.388;11.350;2024-02-26T04:51:00;3.40;89.00
11140;DHT22;5624;49.388;11.350;2024-02-26T04:53:26;3.40;89.20
11140;DHT22;5624;49.388;11.350;2024-02-26T04:55:52;3.40;89.20
11140;DHT22;5624;49.388;11.350;2024-02-26T04:58:17;3.50;88.90
11140;DHT22;5624;49.388;11.350;2024-02-26T05:00:43;3.50;89.00
11140;DHT22;5624;49.388;11.350;2024-02-26T05:03:08;3.60;88.90
11140;DHT22;5624;49.388;11.350;2024-02-26T05:05:38;3.50;88.50
11140;DHT22;5624;49.388;11.350;2024-02-26T05:08:04;3.50;88.30
11140;DHT22;5624;49.388;11.350;2024-02-26T05:10:29;3.40;88.60
11140;DHT22;5624;49.388;11.350;2024-02-26T05:12:55;3.50;88.00
11140;DHT22;5624;49.388;11.350;2024-02-26T05:15:20;3.50;88.20
11140;DHT22;5624;49.388;11.350;2024-02-26T05:17:46;3.40;87.90
11140;DHT22;5624;49.388;11.350;2024-02-26T05:20:11;3.40;87.80
11140;DHT22;5624;49.388;11.350;2024-02-26T05:22:37;3.40;87.60
11140;DHT22;5624;49.388;11.350;2024-02-26T05:25:03;3.30;87.70
11140;DHT22;5624;49.388;11.350;2024-02-26T05:27:29;3.30;88.10
11140;DHT22;5624;49.388;11.350;2024-02-26T05:29:54;3.20;88.20
11140;DHT22;5624;49.388;11.350;2024-02-26T05:32:20;3.20;88.50
11140;DHT22;5624;49.388;11.350;2024-02-26T05:34:45;3.20;88.50
11140;DHT22;5624;49.388;11.350;2024-02-26T05:37:11;3.10;88.50
11140;DHT22;5624;49.388;11.350;2024-02-26T05:39:37;3.10;88.30
11140;DHT22;5624;49.388;11.350;2024-02-26T05:42:02;3.10;88.70
11140;DHT22;5624;49.388;11.350;2024-02-26T05:44:28;3.00;88.80
11140;DHT22;5624;49.388;11.350;2024-02-26T05:46:54;3.10;89.00
11140;DHT22;5624;49.388;11.350;2024-02-26T05:49:19;3.10;89.10
11140;DHT22;5624;49.388;11.350;2024-02-26T05:51:45;3.00;89.00
11140;DHT22;5624;49.388;11.350;2024-02-26T05:54:11;3.00;88.70
11140;DHT22;5624;49.388;11.350;2024-02-26T05:56:36;3.00;88.40
11140;DHT22;5624;49.388;11.350;2024-02-26T05:59:02;3.10;88.20
11140;DHT22;5624;49.388;11.350;2024-02-26T06:01:28;3.10;87.90
11140;DHT22;5624;49.388;11.350;2024-02-26T06:03:53;3.10;87.50
11140;DHT22;5624;49.388;11.350;2024-02-26T06:06:19;3.20;87.10
11140;DHT22;5624;49.388;11.350;2024-02-26T06:08:44;3.20;86.90
11140;DHT22;5624;49.388;11.350;2024-02-26T06:11:10;3.20;87.50
11140;DHT22;5624;49.388;11.350;2024-02-26T06:13:35;3.20;87.20
11140;DHT22;5624;49.388;11.350;2024-02-26T06:16:01;3.20;86.90
11140;DHT22;5624;49.388;11.350;2024-02-26T06:18:27;3.30;86.60
11140;DHT22;5624;49.388;11.350;2024-02-26T06:20:53;3.30;86.10
11140;DHT22;5624;49.388;11.350;2024-02-26T06:23:18;3.30;85.60
11140;DHT22;5624;49.388;11.350;2024-02-26T06:25:44;3.50;85.20
11140;DHT22;5624;49.388;11.350;2024-02-26T06:28:10;3.60;85.20
11140;DHT22;5624;49.388;11.350;2024-02-26T06:30:35;3.70;84.30
11140;DHT22;5624;49.388;11.350;2024-02-26T06:33:01;3.70;83.50
11140;DHT22;5624;49.388;11.350;2024-02-26T06:35:27;3.80;83.50
11140;DHT22;5624;49.388;11.350;2024-02-26T06:37:52;3.90;82.50
11140;DHT22;5624;49.388;11.350;2024-02-26T06:40:19;3.90;83.00
11140;DHT22;5624;49.388;11.350;2024-02-26T06:42:45;4.00;82.60
11140;DHT22;5624;49.388;11.350;2024-02-26T06:45:10;4.10;81.80
11140;DHT22;5624;49.388;11.350;2024-02-26T06:47:36;4.20;81.90
11140;DHT22;5624;49.388;11.350;2024-02-26T06:50:01;4.30;80.90
11140;DHT22;5624;49.388;11.350;2024-02-26T06:52:27;4.30;80.60
11140;DHT22;5624;49.388;11.350;2024-02-26T06:54:53;4.30;80.60
11140;DHT22;5624;49.388;11.350;2024-02-26T06:57:21;4.30;80.40
11140;DHT22;5624;49.388;11.350;2024-02-26T06:59:47;4.10;81.00
11140;DHT22;5624;49.388;11.350;2024-02-26T07:02:15;4.10;81.70
11140;DHT22;5624;49.388;11.350;2024-02-26T07:04:44;4.00;82.00
11140;DHT22;5624;49.388;11.350;2024-02-26T07:07:09;4.00;81.70
11140;DHT22;5624;49.388;11.350;2024-02-26T07:09:36;4.00;82.00
11140;DHT22;5624;49.388;11.350;2024-02-26T07:12:01;4.00;81.10
11140;DHT22;5624;49.388;11.350;2024-02-26T07:14:27;4.00;81.20
11140;DHT22;5624;49.388;11.350;2024-02-26T07:16:52;4.00;81.50
11140;DHT22;5624;49.388;11.350;2024-02-26T07:19:18;4.00;81.30
11140;DHT22;5624;49.388;11.350;2024-02-26T07:21:43;4.10;81.00
11140;DHT22;5624;49.388;11.350;2024-02-26T07:24:09;4.10;81.00
11140;DHT22;5624;49.388;11.350;2024-02-26T07:26:34;4.20;80.50
11140;DHT22;5624;49.388;11.350;2024-02-26T07:29:00;4.20;80.30
11140;DHT22;5624;49.388;11.350;2024-02-26T07:31:26;4.20;80.30
11140;DHT22;5624;49.388;11.350;2024-02-26T07:33:52;4.20;80.30
11140;DHT22;5624;49.388;11.350;2024-02-26T07:36:17;4.20;80.40
11140;DHT22;5624;49.388;11.350;2024-02-26T07:38:43;4.30;79.90
11140;DHT22;5624;49.388;11.350;2024-02-26T07:41:09;4.20;79.90
11140;DHT22;5624;49.388;11.350;2024-02-26T07:43:34;4.30;80.30
11140;DHT22;5624;49.388;11.350;2024-02-26T07:46:00;4.30;80.50
11140;DHT22;5624;49.388;11.350;2024-02-26T07:48:26;4.30;79.80
11140;DHT22;5624;49.388;11.350;2024-02-26T07:50:51;4.50;79.20
11140;DHT22;5624;49.388;11.350;2024-02-26T07:53:17;4.50;78.90
11140;DHT22;5624;49.388;11.350;2024-02-26T07:55:42;4.60;79.00
11140;DHT22;5624;49.388;11.350;2024-02-26T07:58:08;4.70;79.10
11140;DHT22;5624;49.388;11.350;2024-02-26T08:00:33;4.70;77.80
11140;DHT22;5624;49.388;11.350;2024-02-26T08:02:59;4.80;78.00
11140;DHT22;5624;49.388;11.350;2024-02-26T08:05:24;4.90;77.50
11140;DHT22;5624;49.388;11.350;2024-02-26T08:07:50;5.00;76.80
11140;DHT22;5624;49.388;11.350;2024-02-26T08:10:16;5.10;76.00
11140;DHT22;5624;49.388;11.350;2024-02-26T08:12:41;5.20;76.80
11140;DHT22;5624;49.388;11.350;2024-02-26T08:15:08;5.30;75.50
11140;DHT22;5624;49.388;11.350;2024-02-26T08:17:33;5.40;75.10
11140;DHT22;5624;49.388;11.350;2024-02-26T08:19:59;5.30;75.20
11140;DHT22;5624;49.388;11.350;2024-02-26T08:22:25;5.30;75.70
11140;DHT22;5624;49.388;11.350;2024-02-26T08:24:51;5.20;75.60
11140;DHT22;5624;49.388;11.350;2024-02-26T08:27:16;5.20;76.90
11140;DHT22;5624;49.388;11.350;2024-02-26T08:29:42;5.20;76.20
11140;DHT22;5624;49.388;11.350;2024-02-26T08:32:08;5.30;75.90
11140;DHT22;5624;49.388;11.350;2024-02-26T08:34:34;5.40;75.40
11140;DHT22;5624;49.388;11.350;2024-02-26T08:36:59;5.20;75.80
11140;DHT22;5624;49.388;11.350;2024-02-26T08:39:25;5.20;75.80
11140;DHT22;5624;49.388;11.350;2024-02-26T08:41:51;5.10;76.10
11140;DHT22;5624;49.388;11.350;2024-02-26T08:44:17;5.20;75.60
11140;DHT22;5624;49.388;11.350;2024-02-26T08:46:42;5.10;75.90
11140;DHT22;5624;49.388;11.350;2024-02-26T08:49:08;5.00;75.70
11140;DHT22;5624;49.388;11.350;2024-02-26T08:51:33;5.00;75.80
11140;DHT22;5624;49.388;11.350;2024-02-26T08:53:59;5.00;75.90
11140;DHT22;5624;49.388;11.350;2024-02-26T08:56:24;5.00;75.60
11140;DHT22;5624;49.388;11.350;2024-02-26T08:58:50;5.10;75.80
11140;DHT22;5624;49.388;11.350;2024-02-26T09:01:18;5.00;75.90
11140;DHT22;5624;49.388;11.350;2024-02-26T09:03:44;5.10;75.20
11140;DHT22;5624;49.388;11.350;2024-02-26T09:06:10;5.20;74.90
11140;DHT22;5624;49.388;11.350;2024-02-26T09:08:37;5.50;74.70
11140;DHT22;5624;49.388;11.350;2024-02-26T09:11:03;5.70;73.60
11140;DHT22;5624;49.388;11.350;2024-02-26T09:13:29;6.00;73.30
11140;DHT22;5624;49.388;11.350;2024-02-26T09:15:54;6.10;71.70
11140;DHT22;5624;49.388;11.350;2024-02-26T09:18:20;6.20;70.10
11140;DHT22;5624;49.388;11.350;2024-02-26T09:20:46;6.10;70.40
11140;DHT22;5624;49.388;11.350;2024-02-26T09:23:11;6.20;70.10
11140;DHT22;5624;49.388;11.350;2024-02-26T09:25:37;6.20;70.90
11140;DHT22;5624;49.388;11.350;2024-02-26T09:28:02;6.30;70.60
11140;DHT22;5624;49.388;11.350;2024-02-26T09:30:28;6.40;69.00
11140;DHT22;5624;49.388;11.350;2024-02-26T09:32:54;6.30;69.20
11140;DHT22;5624;49.388;11.350;2024-02-26T09:35:20;6.40;69.80
11140;DHT22;5624;49.388;11.350;2024-02-26T09:37:46;6.50;68.70
11140;DHT22;5624;49.388;11.350;2024-02-26T09:40:14;6.60;68.30
11140;DHT22;5624;49.388;11.350;2024-02-26T09:42:44;6.90;68.30
11140;DHT22;5624;49.388;11.350;2024-02-26T09:45:17;6.90;66.40
11140;DHT22;5624;49.388;11.350;2024-02-26T09:47:43;7.10;66.90
11140;DHT22;5624;49.388;11.350;2024-02-26T09:50:09;7.50;66.00
11140;DHT22;5624;49.388;11.350;2024-02-26T09:52:39;7.60;64.30
11140;DHT22;5624;49.388;11.350;2024-02-26T09:55:08;7.60;63.90
11140;DHT22;5624;49.388;11.350;2024-02-26T09:57:36;7.50;63.60
11140;DHT22;5624;49.388;11.350;2024-02-26T10:00:03;7.50;64.50
11140;DHT22;5624;49.388;11.350;2024-02-26T10:02:33;7.70;63.60
11140;DHT22;5624;49.388;11.350;2024-02-26T10:05:02;7.90;62.50
11140;DHT22;5624;49.388;11.350;2024-02-26T10:07:30;8.10;64.80
11140;DHT22;5624;49.388;11.350;2024-02-26T10:09:57;8.30;61.40
11140;DHT22;5624;49.388;11.350;2024-02-26T10:12:23;8.40;62.30
11140;DHT22;5624;49.388;11.350;2024-02-26T10:14:51;8.40;60.90
11140;DHT22;5624;49.388;11.350;2024-02-26T10:17:16;8.50;60.50
11140;DHT22;5624;49.388;11.350;2024-02-26T10:19:42;8.40;60.50
11140;DHT22;5624;49.388;11.350;2024-02-26T10:22:07;8.40;60.40
11140;DHT22;5624;49.388;11.350;2024-02-26T10:24:33;8.50;61.00
11140;DHT22;5624;49.388;11.350;2024-02-26T10:26:59;8.60;60.20
11140;DHT22;5624;49.388;11.350;2024-02-26T10:29:25;8.50;60.70
11140;DHT22;5624;49.388;11.350;2024-02-26T10:31:51;8.60;60.20
11140;DHT22;5624;49.388;11.350;2024-02-26T10:34:18;8.60;60.60
11140;DHT22;5624;49.388;11.350;2024-02-26T10:36:44;8.50;60.20
11140;DHT22;5624;49.388;11.350;2024-02-26T10:39:12;8.60;60.70
11140;DHT22;5624;49.388;11.350;2024-02-26T10:41:38;8.90;60.50
11140;DHT22;5624;49.388;11.350;2024-02-26T10:44:04;9.20;59.90
11140;DHT22;5624;49.388;11.350;2024-02-26T10:46:29;9.50;60.00
11140;DHT22;5624;49.388;11.350;2024-02-26T10:48:56;10.00;58.90
11140;DHT22;5624;49.388;11.350;2024-02-26T10:51:30;10.40;55.90
11140;DHT22;5624;49.388;11.350;2024-02-26T10:53:57;10.50;55.40
11140;DHT22;5624;49.388;11.350;2024-02-26T10:56:25;10.70;55.90
11140;DHT22;5624;49.388;11.350;2024-02-26T10:58:53;10.80;56.60
11140;DHT22;5624;49.388;11.350;2024-02-26T11:01:19;11.00;54.40
11140;DHT22;5624;49.388;11.350;2024-02-26T11:03:48;10.70;53.50
11140;DHT22;5624;49.388;11.350;2024-02-26T11:06:15;10.60;54.10
11140;DHT22;5624;49.388;11.350;2024-02-26T11:08:41;10.40;55.30
11140;DHT22;5624;49.388;11.350;2024-02-26T11:11:07;10.60;54.70
11140;DHT22;5624;49.388;11.350;2024-02-26T11:13:35;10.80;54.30
11140;DHT22;5624;49.388;11.350;2024-02-26T11:16:04;10.90;54.60
11140;DHT22;5624;49.388;11.350;2024-02-26T11:18:31;10.90;50.50
11140;DHT22;5624;49.388;11.350;2024-02-26T11:20:58;10.90;52.20
11140;DHT22;5624;49.388;11.350;2024-02-26T11:23:24;10.70;52.30
11140;DHT22;5624;49.388;11.350;2024-02-26T11:25:52;10.60;52.00
11140;DHT22;5624;49.388;11.350;2024-02-26T11:28:21;10.50;52.90
11140;DHT22;5624;49.388;11.350;2024-02-26T11:30:48;10.50;53.10
11140;DHT22;5624;49.388;11.350;2024-02-26T11:33:15;10.70;52.40
11140;DHT22;5624;49.388;11.350;2024-02-26T11:35:41;10.90;53.70
11140;DHT22;5624;49.388;11.350;2024-02-26T11:38:07;10.60;51.80
11140;DHT22;5624;49.388;11.350;2024-02-26T11:40:37;10.70;51.20
11140;DHT22;5624;49.388;11.350;2024-02-26T11:43:05;10.60;50.10
11140;DHT22;5624;49.388;11.350;2024-02-26T11:45:56;10.60;51.20
11140;DHT22;5624;49.388;11.350;2024-02-26T11:48:25;10.50;51.90
11140;DHT22;5624;49.388;11.350;2024-02-26T11:50:53;10.60;50.40
11140;DHT22;5624;49.388;11.350;2024-02-26T11:53:29;10.40;51.60
11140;DHT22;5624;49.388;11.350;2024-02-26T11:58:45;11.10;50.00
11140;DHT22;5624;49.388;11.350;2024-02-26T12:01:39;11.10;50.20
11140;DHT22;5624;49.388;11.350;2024-02-26T12:04:06;11.40;48.50
11140;DHT22;5624;49.388;11.350;2024-02-26T12:06:41;11.50;48.50
11140;DHT22;5624;49.388;11.350;2024-02-26T12:09:07;11.50;49.50
11140;DHT22;5624;49.388;11.350;2024-02-26T12:11:37;11.40;49.10
11140;DHT22;5624;49.388;11.350;2024-02-26T12:14:03;11.80;48.30
11140;DHT22;5624;49.388;11.350;2024-02-26T12:16:38;11.60;47.80
11140;DHT22;5624;49.388;11.350;2024-02-26T12:19:05;11.50;49.30
11140;DHT22;5624;49.388;11.350;2024-02-26T12:21:37;11.30;48.00
11140;DHT22;5624;49.388;11.350;2024-02-26T12:24:14;11.00;48.90
11140;DHT22;5624;49.388;11.350;2024-02-26T12:26:40;11.20;48.50
11140;DHT22;5624;49.388;11.350;2024-02-26T12:29:07;11.20;48.00
11140;DHT22;5624;49.388;11.350;2024-02-26T12:31:33;11.20;48.20
11140;DHT22;5624;49.388;11.350;2024-02-26T12:34:00;11.00;49.00
11140;DHT22;5624;49.388;11.350;2024-02-26T12:36:26;11.20;49.90
11140;DHT22;5624;49.388;11.350;2024-02-26T12:38:52;11.60;49.20
11140;DHT22;5624;49.388;11.350;2024-02-26T12:41:17;11.80;48.20
11140;DHT22;5624;49.388;11.350;2024-02-26T12:43:43;12.00;47.40
11140;DHT22;5624;49.388;11.350;2024-02-26T12:46:10;11.60;46.80
11140;DHT22;5624;49.388;11.350;2024-02-26T12:48:36;11.20;49.10
11140;DHT22;5624;49.388;11.350;2024-02-26T12:51:02;11.30;48.80
11140;DHT22;5624;49.388;11.350;2024-02-26T12:53:27;11.30;47.50
11140;DHT22;5624;49.388;11.350;2024-02-26T12:55:54;11.30;47.90
11140;DHT22;5624;49.388;11.350;2024-02-26T12:58:21;11.20;47.80
11140;DHT22;5624;49.388;11.350;2024-02-26T13:00:51;11.30;47.00
11140;DHT22;5624;49.388;11.350;2024-02-26T13:03:17;11.10;47.70
11140;DHT22;5624;49.388;11.350;2024-02-26T13:05:44;10.90;48.30
11140;DHT22;5624;49.388;11.350;2024-02-26T13:08:10;11.10;48.00
11140;DHT22;5624;49.388;11.350;2024-02-26T13:10:36;10.90;46.80
11140;DHT22;5624;49.388;11.350;2024-02-26T13:13:02;10.70;47.40
11140;DHT22;5624;49.388;11.350;2024-02-26T13:15:28;10.80;48.50
11140;DHT22;5624;49.388;11.350;2024-02-26T13:17:53;11.20;47.20
11140;DHT22;5624;49.388;11.350;2024-02-26T13:20:30;11.20;47.20
11140;DHT22;5624;49.388;11.350;2024-02-26T13:23:15;11.10;45.80
11140;DHT22;5624;49.388;11.350;2024-02-26T13:25:40;11.00;47.30
11140;DHT22;5624;49.388;11.350;2024-02-26T13:28:16;11.20;47.60
11140;DHT22;5624;49.388;11.350;2024-02-26T13:30:53;11.30;47.90
11140;DHT22;5624;49.388;11.350;2024-02-26T13:33:22;11.30;49.10
11140;DHT22;5624;49.388;11.350;2024-02-26T13:35:48;11.20;49.70
11140;DHT22;5624;49.388;11.350;2024-02-26T13:38:13;11.10;49.50
11140;DHT22;5624;49.388;11.350;2024-02-26T13:40:39;10.90;50.30
11140;DHT22;5624;49.388;11.350;2024-02-26T13:43:05;10.90;50.50
11140;DHT22;5624;49.388;11.350;2024-02-26T13:45:34;11.00;50.90
11140;DHT22;5624;49.388;11.350;2024-02-26T13:48:02;10.90;51.20
11140;DHT22;5624;49.388;11.350;2024-02-26T13:50:28;10.90;51.40
11140;DHT22;5624;49.388;11.350;2024-02-26T13:52:54;10.80;51.50
11140;DHT22;5624;49.388;11.350;2024-02-26T13:55:22;10.60;52.50
11140;DHT22;5624;49.388;11.350;2024-02-26T13:57:49;10.50;53.40
11140;DHT22;5624;49.388;11.350;2024-02-26T14:00:17;10.50;52.50
11140;DHT22;5624;49.388;11.350;2024-02-26T14:02:43;10.40;53.10
11140;DHT22;5624;49.388;11.350;2024-02-26T14:05:09;10.40;54.10
11140;DHT22;5624;49.388;11.350;2024-02-26T14:07:34;10.20;54.30
11140;DHT22;5624;49.388;11.350;2024-02-26T14:10:02;10.30;52.80
11140;DHT22;5624;49.388;11.350;2024-02-26T14:12:29;10.10;53.30
11140;DHT22;5624;49.388;11.350;2024-02-26T14:14:55;10.10;53.50
11140;DHT22;5624;49.388;11.350;2024-02-26T14:17:22;9.90;54.00
11140;DHT22;5624;49.388;11.350;2024-02-26T14:19:48;9.90;53.40
11140;DHT22;5624;49.388;11.350;2024-02-26T14:22:17;9.90;54.00
11140;DHT22;5624;49.388;11.350;2024-02-26T14:24:46;9.90;53.90
11140;DHT22;5624;49.388;11.350;2024-02-26T14:27:13;10.00;54.40
11140;DHT22;5624;49.388;11.350;2024-02-26T14:29:43;10.00;54.00
11140;DHT22;5624;49.388;11.350;2024-02-26T14:32:09;10.00;53.90
11140;DHT22;5624;49.388;11.350;2024-02-26T14:34:35;10.00;54.70
11140;DHT22;5624;49.388;11.350;2024-02-26T14:37:00;10.00;54.60
11140;DHT22;5624;49.388;11.350;2024-02-26T14:39:26;9.90;55.10
11140;DHT22;5624;49.388;11.350;2024-02-26T14:41:52;9.90;55.30
11140;DHT22;5624;49.388;11.350;2024-02-26T14:44:17;10.10;54.80
11140;DHT22;5624;49.388;11.350;2024-02-26T14:46:43;10.20;54.80
11140;DHT22;5624;49.388;11.350;2024-02-26T14:49:08;10.00;55.00
11140;DHT22;5624;49.388;11.350;2024-02-26T14:51:34;10.10;54.00
11140;DHT22;5624;49.388;11.350;2024-02-26T14:54:00;10.00;54.10
11140;DHT22;5624;49.388;11.350;2024-02-26T14:56:27;10.00;54.10
11140;DHT22;5624;49.388;11.350;2024-02-26T14:58:52;10.00;55.20
11140;DHT22;5624;49.388;11.350;2024-02-26T15:01:18;10.10;55.10
11140;DHT22;5624;49.388;11.350;2024-02-26T15:03:43;10.10;54.70
11140;DHT22;5624;49.388;11.350;2024-02-26T15:06:09;10.10;55.50
11140;DHT22;5624;49.388;11.350;2024-02-26T15:08:35;10.00;56.20
11140;DHT22;5624;49.388;11.350;2024-02-26T15:11:01;10.00;56.50
11140;DHT22;5624;49.388;11.350;2024-02-26T15:13:27;10.00;56.00
11140;DHT22;5624;49.388;11.350;2024-02-26T15:15:52;9.90;56.50
11140;DHT22;5624;49.388;11.350;2024-02-26T15:18:18;10.10;56.30
11140;DHT22;5624;49.388;11.350;2024-02-26T15:20:44;10.00;56.80
11140;DHT22;5624;49.388;11.350;2024-02-26T15:23:11;10.00;56.90
11140;DHT22;5624;49.388;11.350;2024-02-26T15:25:37;10.10;57.30
11140;DHT22;5624;49.388;11.350;2024-02-26T15:28:03;10.00;57.60
11140;DHT22;5624;49.388;11.350;2024-02-26T15:30:28;9.90;57.80
11140;DHT22;5624;49.388;11.350;2024-02-26T15:32:55;10.00;58.10
11140;DHT22;5624;49.388;11.350;2024-02-26T15:35:21;9.90;58.50
11140;DHT22;5624;49.388;11.350;2024-02-26T15:37:47;9.80;58.70
11140;DHT22;5624;49.388;11.350;2024-02-26T15:40:12;9.70;59.40